createdAt,value
2022-11-17T00:00:21.550Z,98902.66
2022-11-17T00:02:50.681Z,98887.91
2022-11-17T00:05:18.633Z,98887.91
2022-11-17T00:07:48.903Z,98876.88
2022-11-17T00:10:18.162Z,98868.94
2022-11-17T00:13:03.331Z,98861.03
2022-11-17T00:15:31.106Z,98858.38
2022-11-17T00:18:14.005Z,98845.16
2022-11-17T00:21:00.270Z,98834.94
2022-11-17T00:23:46.905Z,98816.09
2022-11-17T00:26:16.458Z,98815.00
2022-11-17T00:28:44.126Z,98802.25
2022-11-17T00:31:30.299Z,98798.81
2022-11-17T00:34:05.940Z,98798.03
2022-11-17T00:36:35.406Z,98790.13
2022-11-17T00:39:03.057Z,98788.59
2022-11-17T00:41:30.761Z,98788.16
2022-11-17T00:43:58.378Z,98771.53
2022-11-17T00:46:26.037Z,98750.38
2022-11-17T00:48:53.816Z,98748.50
2022-11-17T00:51:23.355Z,98743.53
2022-11-17T00:53:51.045Z,98737.50
2022-11-17T00:56:18.793Z,98738.59
2022-11-17T00:58:46.513Z,98732.22
2022-11-17T01:01:14.303Z,98720.88
2022-11-17T01:03:42.102Z,98729.13
2022-11-17T01:06:11.771Z,98695.22
2022-11-17T01:08:41.109Z,98714.03
2022-11-17T01:11:11.335Z,98666.47
2022-11-17T01:13:40.113Z,98695.88
2022-11-17T01:16:10.437Z,98669.47
2022-11-17T01:18:38.696Z,98668.34
2022-11-17T01:21:09.136Z,98658.56
2022-11-17T01:23:37.831Z,98661.19
2022-11-17T01:26:09.507Z,98649.84
2022-11-17T01:28:37.946Z,98663.06
2022-11-17T01:31:08.191Z,98659.66
2022-11-17T01:33:36.098Z,98644.56
2022-11-17T01:36:04.560Z,98660.19
2022-11-17T01:38:32.786Z,98652.94
2022-11-17T01:41:01.331Z,98668.81
2022-11-17T01:43:42.834Z,98654.47
2022-11-17T01:46:19.989Z,98646.13
2022-11-17T01:48:49.923Z,98636.63
2022-11-17T01:51:18.613Z,98627.28
2022-11-17T01:53:47.719Z,98622.78
2022-11-17T01:56:20.579Z,98638.63
2022-11-17T01:58:55.837Z,98626.63
2022-11-17T02:01:23.572Z,98611.97
2022-11-17T02:03:51.932Z,98615.41
2022-11-17T02:06:25.447Z,98615.03
2022-11-17T02:08:54.831Z,98610.97
2022-11-17T02:11:23.787Z,98600.75
2022-11-17T02:13:55.841Z,98599.63
2022-11-17T02:16:23.528Z,98600.84
2022-11-17T02:18:51.325Z,98596.75
2022-11-17T02:21:56.825Z,98596.94
2022-11-17T02:24:54.801Z,98604.44
2022-11-17T02:27:53.317Z,98588.94
2022-11-17T02:30:22.926Z,98583.97
2022-11-17T02:33:01.904Z,98573.06
2022-11-17T02:35:37.543Z,98593.09
2022-11-17T02:38:17.779Z,98561.38
2022-11-17T02:40:50.648Z,98566.66
2022-11-17T02:43:41.121Z,98563.25
2022-11-17T02:46:12.120Z,98573.50
2022-11-17T02:48:42.816Z,98566.34
2022-11-17T02:51:15.608Z,98562.59
2022-11-17T02:53:43.890Z,98558.84
2022-11-17T02:56:11.565Z,98556.22
2022-11-17T02:58:40.570Z,98556.22
2022-11-17T03:01:28.459Z,98549.03
2022-11-17T03:04:11.826Z,98538.91
2022-11-17T03:06:47.848Z,98551.78
2022-11-17T03:09:22.747Z,98536.34
2022-11-17T03:11:55.163Z,98535.56
2022-11-17T03:14:32.480Z,98552.56
2022-11-17T03:17:06.751Z,98531.84
2022-11-17T03:19:39.206Z,98536.78
2022-11-17T03:22:13.073Z,98515.97
2022-11-17T03:24:46.031Z,98528.84
2022-11-17T03:27:18.948Z,98515.63
2022-11-17T03:29:52.228Z,98502.09
2022-11-17T03:32:20.465Z,98492.25
2022-11-17T03:34:53.250Z,98500.97
2022-11-17T03:37:24.043Z,98498.31
2022-11-17T03:39:54.815Z,98498.00
2022-11-17T03:42:26.831Z,98498.44
2022-11-17T03:44:58.265Z,98490.50
2022-11-17T03:47:29.268Z,98497.00
2022-11-17T03:50:03.109Z,98488.72
2022-11-17T03:52:31.839Z,98477.03
2022-11-17T03:54:59.875Z,98485.44
2022-11-17T03:57:29.797Z,98472.28
2022-11-17T04:00:01.591Z,98480.56
2022-11-17T04:02:29.395Z,98469.22
2022-11-17T04:05:09.297Z,98466.22
2022-11-17T04:07:40.075Z,98471.19
2022-11-17T04:10:09.827Z,98479.53
2022-11-17T04:12:55.177Z,98475.44
2022-11-17T04:15:47.585Z,98466.75
2022-11-17T04:18:15.992Z,98467.09
2022-11-17T04:20:43.670Z,98467.09
2022-11-17T04:23:14.250Z,98463.69
2022-11-17T04:26:01.568Z,98460.25
2022-11-17T04:28:39.779Z,98468.63
2022-11-17T04:31:11.677Z,98448.22
2022-11-17T04:33:41.042Z,98440.66
2022-11-17T04:36:10.035Z,98443.28
2022-11-17T04:38:37.866Z,98432.28
2022-11-17T04:41:24.597Z,98424.69
2022-11-17T04:43:52.558Z,98419.75
2022-11-17T04:46:23.040Z,98412.91
2022-11-17T04:48:50.711Z,98406.09
2022-11-17T04:51:18.469Z,98401.91
2022-11-17T04:53:46.336Z,98400.38
2022-11-17T04:56:14.324Z,98399.69
2022-11-17T04:58:42.142Z,98385.69
2022-11-17T05:01:17.504Z,98387.16
2022-11-17T05:03:48.221Z,98380.75
2022-11-17T05:06:17.531Z,98382.31
2022-11-17T05:08:45.800Z,98388.34
2022-11-17T05:11:32.481Z,98392.19
2022-11-17T05:14:00.559Z,98388.44
2022-11-17T05:16:45.786Z,98387.00
2022-11-17T05:19:16.921Z,98395.28
2022-11-17T05:21:44.559Z,98384.34
2022-11-17T05:24:11.592Z,98399.88
2022-11-17T05:26:39.568Z,98387.06
2022-11-17T05:29:07.897Z,98380.00
2022-11-17T05:31:35.811Z,98381.88
2022-11-17T05:34:04.152Z,98376.94
2022-11-17T05:36:33.845Z,98391.31
2022-11-17T05:39:01.805Z,98382.97
2022-11-17T05:41:29.815Z,98372.31
2022-11-17T05:43:57.370Z,98363.25
2022-11-17T05:46:25.709Z,98361.31
2022-11-17T05:48:54.143Z,98349.88
2022-11-17T05:51:24.412Z,98360.44
2022-11-17T05:53:53.411Z,98360.03
2022-11-17T05:56:36.536Z,98355.88
2022-11-17T05:59:23.319Z,98356.16
2022-11-17T06:02:00.398Z,98367.09
2022-11-17T06:04:28.506Z,98370.84
2022-11-17T06:06:59.025Z,98351.56
2022-11-17T06:09:30.724Z,98350.03
2022-11-17T06:12:02.611Z,98350.38
2022-11-17T06:14:33.485Z,98362.81
2022-11-17T06:17:06.124Z,98358.63
2022-11-17T06:19:39.422Z,98351.84
2022-11-17T06:22:12.610Z,98362.41
2022-11-17T06:24:44.156Z,98360.97
2022-11-17T06:27:13.023Z,98372.28
2022-11-17T06:29:43.847Z,98375.69
2022-11-17T06:32:13.042Z,98364.91
2022-11-17T06:34:40.847Z,98363.81
2022-11-17T06:37:08.480Z,98372.16
2022-11-17T06:39:36.139Z,98383.50
2022-11-17T06:42:05.286Z,98380.84
2022-11-17T06:44:33.017Z,98382.72
2022-11-17T06:47:00.668Z,98390.66
2022-11-17T06:49:28.498Z,98399.69
2022-11-17T06:51:56.181Z,98387.88
2022-11-17T06:54:23.884Z,98388.25
2022-11-17T06:56:52.503Z,98400.38
2022-11-17T06:59:21.551Z,98397.72
2022-11-17T07:01:49.230Z,98409.41
2022-11-17T07:04:16.927Z,98399.59
2022-11-17T07:06:44.616Z,98407.84
2022-11-17T07:09:12.310Z,98410.16
2022-11-17T07:11:40.050Z,98409.41
2022-11-17T07:14:07.780Z,98404.78
2022-11-17T07:16:37.398Z,98415.34
2022-11-17T07:19:05.120Z,98408.53
2022-11-17T07:21:33.849Z,98421.34
2022-11-17T07:24:01.694Z,98444.34
2022-11-17T07:26:29.399Z,98425.50
2022-11-17T07:28:57.155Z,98430.38
2022-11-17T07:31:24.900Z,98455.25
2022-11-17T07:33:55.124Z,98429.16
2022-11-17T07:36:22.873Z,98439.31
2022-11-17T07:38:50.579Z,98435.47
2022-11-17T07:41:18.267Z,98434.69
2022-11-17T07:43:45.962Z,98434.63
2022-11-17T07:46:15.250Z,98438.38
2022-11-17T07:48:44.362Z,98432.31
2022-11-17T07:51:14.130Z,98434.19
2022-11-17T07:53:41.945Z,98444.31
2022-11-17T07:56:11.336Z,98454.16
2022-11-17T07:58:39.837Z,98457.09
2022-11-17T08:01:08.987Z,98462.31
2022-11-17T08:03:36.929Z,98467.91
2022-11-17T08:06:05.292Z,98471.25
2022-11-17T08:08:35.448Z,98467.41
2022-11-17T08:11:04.633Z,98476.34
2022-11-17T08:13:32.434Z,98482.97
2022-11-17T08:16:00.385Z,98474.97
2022-11-17T08:18:30.442Z,98485.41
2022-11-17T08:21:03.474Z,98484.97
2022-11-17T08:23:31.331Z,98483.47
2022-11-17T08:26:00.524Z,98483.00
2022-11-17T08:28:28.283Z,98491.63
2022-11-17T08:30:56.035Z,98489.41
2022-11-17T08:33:23.815Z,98489.41
2022-11-17T08:35:51.514Z,98481.47
2022-11-17T08:38:19.413Z,98493.13
2022-11-17T08:40:47.829Z,98490.06
2022-11-17T08:43:16.870Z,98503.63
2022-11-17T08:45:44.612Z,98489.22
2022-11-17T08:48:12.294Z,98477.09
2022-11-17T08:50:40.101Z,98497.13
2022-11-17T08:53:07.902Z,98504.94
2022-11-17T08:55:41.213Z,98494.38
2022-11-17T08:58:09.322Z,98502.66
2022-11-17T09:00:38.407Z,98509.47
2022-11-17T09:03:07.540Z,98509.00
2022-11-17T09:05:39.704Z,98503.72
2022-11-17T09:08:37.819Z,98513.22
2022-11-17T09:10:55.219Z,98521.56
2022-11-17T09:13:22.972Z,98508.91
2022-11-17T09:15:52.027Z,98526.38
2022-11-17T09:18:19.717Z,98536.28
2022-11-17T09:20:47.377Z,98524.94
2022-11-17T09:23:15.089Z,98531.09
2022-11-17T09:25:42.773Z,98525.03
2022-11-17T09:28:10.464Z,98528.81
2022-11-17T09:30:38.228Z,98531.09
2022-11-17T09:33:07.264Z,98559.38
2022-11-17T09:35:34.950Z,98542.78
2022-11-17T09:38:02.802Z,98543.53
2022-11-17T09:40:36.293Z,98549.16
2022-11-17T09:43:09.770Z,98561.28
2022-11-17T09:45:39.878Z,98551.44
2022-11-17T09:48:39.593Z,98555.31
2022-11-17T09:51:04.374Z,98574.13
2022-11-17T09:53:43.215Z,98567.31
2022-11-17T09:56:13.275Z,98577.88
2022-11-17T09:58:46.177Z,98574.13
2022-11-17T10:01:16.100Z,98578.78
2022-11-17T10:03:47.795Z,98575.66
2022-11-17T10:06:20.355Z,98575.56
2022-11-17T10:08:58.174Z,98582.41
2022-11-17T10:11:33.835Z,98586.91
2022-11-17T10:14:13.439Z,98591.31
2022-11-17T10:16:43.628Z,98593.84
2022-11-17T10:19:17.892Z,98586.72
2022-11-17T10:21:46.669Z,98593.41
2022-11-17T10:24:34.876Z,98589.34
2022-11-17T10:27:03.692Z,98599.56
2022-11-17T10:29:31.455Z,98601.88
2022-11-17T10:31:59.772Z,98604.19
2022-11-17T10:34:41.413Z,98609.47
2022-11-17T10:37:25.486Z,98616.19
2022-11-17T10:40:10.147Z,98611.13
2022-11-17T10:42:38.014Z,98611.47
2022-11-17T10:45:07.376Z,98601.56
2022-11-17T10:47:39.414Z,98607.63
2022-11-17T10:50:27.476Z,98608.72
2022-11-17T10:53:17.019Z,98622.34
2022-11-17T10:55:45.434Z,98620.63
2022-11-17T10:58:24.553Z,98612.13
2022-11-17T11:00:54.781Z,98618.63
2022-11-17T11:03:24.744Z,98627.75
2022-11-17T11:05:59.734Z,98627.84
2022-11-17T11:08:32.039Z,98622.69
2022-11-17T11:11:01.173Z,98618.13
2022-11-17T11:13:35.015Z,98620.78
2022-11-17T11:16:02.729Z,98629.50
2022-11-17T11:18:32.703Z,98639.28
2022-11-17T11:21:12.513Z,98632.47
2022-11-17T11:23:49.556Z,98643.81
2022-11-17T11:26:45.553Z,98639.63
2022-11-17T11:29:26.027Z,98653.59
2022-11-17T11:32:07.686Z,98646.34
2022-11-17T11:34:50.605Z,98662.53
2022-11-17T11:37:19.894Z,98660.19
2022-11-17T11:39:56.270Z,98661.09
2022-11-17T11:42:46.071Z,98663.75
2022-11-17T11:45:36.550Z,98670.13
2022-11-17T11:48:17.621Z,98668.59
2022-11-17T11:50:53.620Z,98677.19
2022-11-17T11:53:28.141Z,98685.44
2022-11-17T11:56:11.193Z,98681.25
2022-11-17T11:58:44.128Z,98672.09
2022-11-17T12:01:17.169Z,98675.84
2022-11-17T12:03:50.966Z,98676.94
2022-11-17T12:06:44.182Z,98673.88
2022-11-17T12:09:45.894Z,98682.13
2022-11-17T12:12:17.196Z,98690.38
2022-11-17T12:15:30.450Z,98679.38
2022-11-17T12:18:03.931Z,98690.72
2022-11-17T12:20:54.669Z,98687.31
2022-11-17T12:23:57.590Z,98684.66
2022-11-17T12:26:28.931Z,98681.59
2022-11-17T12:29:26.540Z,98686.19
2022-11-17T12:31:55.957Z,98679.38
2022-11-17T12:34:28.977Z,98708.09
2022-11-17T12:37:26.286Z,98695.66
2022-11-17T12:39:57.151Z,98691.47
2022-11-17T12:42:26.532Z,98686.19
2022-11-17T12:45:00.245Z,98687.31
2022-11-17T12:47:29.806Z,98696.31
2022-11-17T12:50:19.868Z,98696.31
2022-11-17T12:52:59.995Z,98715.91
2022-11-17T12:55:43.707Z,98700.50
2022-11-17T12:58:20.884Z,98708.09
2022-11-17T13:00:54.882Z,98720.53
2022-11-17T13:03:29.321Z,98731.09
2022-11-17T13:06:33.929Z,98711.84
2022-11-17T13:08:57.805Z,98714.81
2022-11-17T13:11:25.998Z,98726.91
2022-11-17T13:14:11.551Z,98721.28
2022-11-17T13:16:46.233Z,98743.97
2022-11-17T13:19:32.270Z,98728.91
2022-11-17T13:22:01.697Z,98746.72
2022-11-17T13:24:31.718Z,98752.69
2022-11-17T13:27:00.678Z,98742.00
2022-11-17T13:29:29.741Z,98746.06
2022-11-17T13:32:13.627Z,98759.25
2022-11-17T13:34:53.131Z,98757.75
2022-11-17T13:37:22.946Z,98750.13
2022-11-17T13:40:02.392Z,98749.34
2022-11-17T13:42:33.412Z,98750.81
2022-11-17T13:45:06.093Z,98748.91
2022-11-17T13:47:46.407Z,98747.38
2022-11-17T13:50:38.181Z,98753.75
2022-11-17T13:53:23.866Z,98757.94
2022-11-17T13:55:52.622Z,98759.03
2022-11-17T13:58:38.143Z,98773.34
2022-11-17T14:01:07.943Z,98772.56
2022-11-17T14:03:38.759Z,98773.34
2022-11-17T14:06:08.350Z,98769.59
2022-11-17T14:08:37.289Z,98770.72
2022-11-17T14:11:16.467Z,98780.94
2022-11-17T14:13:46.206Z,98779.84
2022-11-17T14:16:25.789Z,98782.59
2022-11-17T14:18:59.674Z,98779.63
2022-11-17T14:21:27.933Z,98792.50
2022-11-17T14:24:05.359Z,98794.03
2022-11-17T14:26:33.334Z,98788.09
2022-11-17T14:29:02.369Z,98784.03
2022-11-17T14:31:33.351Z,98783.72
2022-11-17T14:34:01.164Z,98795.81
2022-11-17T14:36:29.114Z,98788.34
2022-11-17T14:38:56.858Z,98788.78
2022-11-17T14:41:24.487Z,98792.97
2022-11-17T14:43:52.239Z,98801.22
2022-11-17T14:46:22.804Z,98794.50
2022-11-17T14:48:52.408Z,98803.53
2022-11-17T14:51:20.915Z,98799.47
2022-11-17T14:53:49.193Z,98802.56
2022-11-17T14:56:18.857Z,98813.91
2022-11-17T14:58:46.892Z,98811.72
2022-11-17T15:01:16.322Z,98820.84
2022-11-17T15:03:44.143Z,98816.66
2022-11-17T15:06:19.446Z,98819.28
2022-11-17T15:08:47.810Z,98838.56
2022-11-17T15:11:17.511Z,98834.06
2022-11-17T15:13:45.293Z,98839.44
2022-11-17T15:16:13.577Z,98831.31
2022-11-17T15:18:41.268Z,98840.78
2022-11-17T15:21:11.021Z,98839.69
2022-11-17T15:23:41.667Z,98842.75
2022-11-17T15:26:12.064Z,98849.16
2022-11-17T15:28:39.773Z,98850.59
2022-11-17T15:31:12.729Z,98849.03
2022-11-17T15:33:41.721Z,98847.16
2022-11-17T15:36:11.546Z,98868.53
2022-11-17T15:38:41.553Z,98856.97
2022-11-17T15:41:11.596Z,98862.41
2022-11-17T15:43:40.972Z,98863.72
2022-11-17T15:46:10.568Z,98868.22
2022-11-17T15:48:40.168Z,98877.28
2022-11-17T15:51:09.028Z,98867.13
2022-11-17T15:53:38.517Z,98874.28
2022-11-17T15:56:09.802Z,98874.06
2022-11-17T15:58:37.723Z,98879.22
2022-11-17T16:01:13.655Z,98885.50
2022-11-17T16:03:43.103Z,98878.22
2022-11-17T16:06:12.149Z,98884.28
2022-11-17T16:08:40.509Z,98882.41
2022-11-17T16:11:10.902Z,98891.00
2022-11-17T16:13:39.090Z,98887.91
2022-11-17T16:16:08.645Z,98898.34
2022-11-17T16:18:38.559Z,98894.16
2022-11-17T16:21:07.853Z,98897.13
2022-11-17T16:23:39.813Z,98892.94
2022-11-17T16:26:09.359Z,98901.00
2022-11-17T16:28:37.236Z,98897.91
2022-11-17T16:31:15.765Z,98903.50
2022-11-17T16:33:48.123Z,98911.44
2022-11-17T16:36:15.946Z,98910.34
2022-11-17T16:38:59.775Z,98907.25
2022-11-17T16:41:32.567Z,98909.91
2022-11-17T16:44:00.891Z,98918.91
2022-11-17T16:46:30.466Z,98928.59
2022-11-17T16:49:01.489Z,98927.19
2022-11-17T16:51:29.471Z,98935.88
2022-11-17T16:53:59.368Z,98923.13
2022-11-17T16:56:27.412Z,98930.59
2022-11-17T16:58:57.151Z,98932.03
2022-11-17T17:01:27.246Z,98939.50
2022-11-17T17:03:58.549Z,98939.50
2022-11-17T17:06:26.590Z,98929.50
2022-11-17T17:08:55.304Z,98944.91
2022-11-17T17:11:23.561Z,98943.38
2022-11-17T17:13:51.529Z,98946.13
2022-11-17T17:16:21.310Z,98947.53
2022-11-17T17:18:49.055Z,98953.28
2022-11-17T17:21:20.218Z,98954.06
2022-11-17T17:23:48.133Z,98970.03
2022-11-17T17:26:18.344Z,98968.03
2022-11-17T17:28:48.366Z,98973.31
2022-11-17T17:31:21.396Z,98973.31
2022-11-17T17:33:51.801Z,98981.25
2022-11-17T17:36:20.966Z,98984.97
2022-11-17T17:38:54.991Z,98989.50
2022-11-17T17:41:24.488Z,98987.63
2022-11-17T17:43:57.402Z,98996.66
2022-11-17T17:46:25.556Z,99005.66
2022-11-17T17:48:54.795Z,99000.72
2022-11-17T17:51:25.024Z,99003.38
2022-11-17T17:53:53.679Z,99004.44
2022-11-17T17:56:22.603Z,99014.25
2022-11-17T17:58:51.744Z,99018.09
2022-11-17T18:01:21.867Z,99023.28
2022-11-17T18:03:51.174Z,99029.00
2022-11-17T18:06:22.359Z,99039.25
2022-11-17T18:08:50.504Z,99037.72
2022-11-17T18:11:20.047Z,99038.78
2022-11-17T18:13:49.651Z,99036.94
2022-11-17T18:16:19.929Z,99038.50
2022-11-17T18:18:47.821Z,99052.78
2022-11-17T18:21:18.198Z,99049.69
2022-11-17T18:23:47.432Z,99041.63
2022-11-17T18:26:17.181Z,99036.69
2022-11-17T18:28:50.347Z,99047.88
2022-11-17T18:31:18.136Z,99048.22
2022-11-17T18:33:46.207Z,99052.72
2022-11-17T18:36:13.728Z,99049.28
2022-11-17T18:38:41.415Z,99050.06
2022-11-17T18:41:12.170Z,99050.06
2022-11-17T18:43:40.059Z,99055.69
2022-11-17T18:46:09.261Z,99059.09
2022-11-17T18:48:39.156Z,99059.84
2022-11-17T18:51:23.304Z,99070.31
2022-11-17T18:53:52.700Z,99063.34
2022-11-17T18:56:24.686Z,99066.16
2022-11-17T18:58:53.085Z,99072.88
2022-11-17T19:01:22.746Z,99077.38
2022-11-17T19:03:52.395Z,99089.78
2022-11-17T19:06:21.186Z,99084.84
2022-11-17T19:08:49.295Z,99094.63
2022-11-17T19:11:17.574Z,99095.91
2022-11-17T19:13:47.478Z,99089.84
2022-11-17T19:16:17.302Z,99096.97
2022-11-17T19:18:46.998Z,99101.81
2022-11-17T19:21:16.367Z,99105.09
2022-11-17T19:23:51.118Z,99115.19
2022-11-17T19:26:22.076Z,99120.34
2022-11-17T19:28:52.027Z,99116.81
2022-11-17T19:31:21.252Z,99122.84
2022-11-17T19:33:50.041Z,99125.63
2022-11-17T19:36:20.026Z,99130.13
2022-11-17T19:38:49.983Z,99134.94
2022-11-17T19:41:19.797Z,99137.59
2022-11-17T19:43:47.917Z,99146.59
2022-11-17T19:46:17.707Z,99138.22
2022-11-17T19:48:46.395Z,99146.13
2022-11-17T19:51:16.540Z,99143.03
2022-11-17T19:53:44.662Z,99152.53
2022-11-17T19:56:12.313Z,99154.22
2022-11-17T19:58:41.125Z,99158.44
2022-11-17T20:01:10.642Z,99156.41
2022-11-17T20:03:40.938Z,99165.44
2022-11-17T20:06:09.767Z,99173.19
2022-11-17T20:08:37.757Z,99180.34
2022-11-17T20:11:07.706Z,99180.34
2022-11-17T20:13:36.363Z,99187.34
2022-11-17T20:16:11.523Z,99182.38
2022-11-17T20:18:41.777Z,99196.38
2022-11-17T20:21:10.264Z,99194.00
2022-11-17T20:23:39.309Z,99194.00
2022-11-17T20:26:08.273Z,99209.06
2022-11-17T20:28:37.758Z,99210.63
2022-11-17T20:31:09.933Z,99207.22
2022-11-17T20:33:38.133Z,99221.66
2022-11-17T20:36:07.678Z,99223.38
2022-11-17T20:38:35.909Z,99224.91
2022-11-17T20:41:05.019Z,99231.59
2022-11-17T20:43:33.877Z,99234.53
2022-11-17T20:46:02.003Z,99242.47
2022-11-17T20:48:30.255Z,99246.50
2022-11-17T20:50:58.594Z,99245.72
2022-11-17T20:53:28.734Z,99247.59
2022-11-17T20:55:57.044Z,99251.78
2022-11-17T20:58:25.263Z,99262.66
2022-11-17T21:00:53.252Z,99257.38
2022-11-17T21:03:21.597Z,99258.44
2022-11-17T21:05:58.763Z,99262.47
2022-11-17T21:08:30.509Z,99269.34
2022-11-17T21:10:58.855Z,99271.97
2022-11-17T21:13:27.501Z,99278.19
2022-11-17T21:16:10.613Z,99275.84
2022-11-17T21:18:39.742Z,99286.72
2022-11-17T21:21:09.591Z,99291.19
2022-11-17T21:23:40.006Z,99294.47
2022-11-17T21:26:08.708Z,99289.97
2022-11-17T21:28:37.196Z,99288.41
2022-11-17T21:31:08.031Z,99294.00
2022-11-17T21:33:36.173Z,99295.41
2022-11-17T21:36:07.910Z,99291.53
2022-11-17T21:38:35.856Z,99299.72
2022-11-17T21:41:05.418Z,99301.91
2022-11-17T21:43:33.694Z,99303.31
2022-11-17T21:46:06.723Z,99296.78
2022-11-17T21:48:35.304Z,99302.38
2022-11-17T21:51:03.169Z,99303.75
2022-11-17T21:53:31.375Z,99312.59
2022-11-17T21:56:02.447Z,99314.00
2022-11-17T21:58:31.521Z,99322.97
2022-11-17T22:00:59.666Z,99326.72
2022-11-17T22:03:27.698Z,99317.22
2022-11-17T22:06:00.997Z,99331.53
2022-11-17T22:08:29.832Z,99332.59
2022-11-17T22:10:57.498Z,99336.63
2022-11-17T22:13:25.211Z,99330.56
2022-11-17T22:15:54.266Z,99349.81
2022-11-17T22:18:22.226Z,99342.81
2022-11-17T22:20:51.865Z,99347.59
2022-11-17T22:23:19.608Z,99346.34
2022-11-17T22:25:54.240Z,99342.75
2022-11-17T22:28:22.505Z,99350.69
2022-11-17T22:30:50.213Z,99354.69
2022-11-17T22:33:20.257Z,99355.47
2022-11-17T22:35:48.744Z,99359.50
2022-11-17T22:38:17.098Z,99371.91
2022-11-17T22:40:44.901Z,99371.13
2022-11-17T22:43:15.431Z,99382.75
2022-11-17T22:45:43.766Z,99375.13
2022-11-17T22:48:11.590Z,99384.91
2022-11-17T22:50:40.680Z,99387.06
2022-11-17T22:53:08.380Z,99389.69
2022-11-17T22:55:36.252Z,99392.97
2022-11-17T22:58:03.950Z,99398.84
2022-11-17T23:00:33.540Z,99403.16
2022-11-17T23:03:01.464Z,99403.75
2022-11-17T23:05:29.202Z,99404.81
2022-11-17T23:07:58.304Z,99406.53
2022-11-17T23:10:25.987Z,99407.59
2022-11-17T23:12:53.720Z,99418.44
2022-11-17T23:15:21.766Z,99417.66
2022-11-17T23:17:49.842Z,99415.66
2022-11-17T23:20:17.608Z,99423.03
2022-11-17T23:22:45.255Z,99427.38
2022-11-17T23:25:14.321Z,99430.00
2022-11-17T23:27:42.135Z,99426.91
2022-11-17T23:30:10.830Z,99434.31
2022-11-17T23:32:38.514Z,99429.06
2022-11-17T23:35:06.901Z,99436.78
2022-11-17T23:37:34.591Z,99435.53
2022-11-17T23:40:02.436Z,99435.03
2022-11-17T23:42:32.630Z,99435.34
2022-11-17T23:45:00.755Z,99447.72
2022-11-17T23:47:28.388Z,99453.00
2022-11-17T23:49:55.989Z,99454.09
2022-11-17T23:52:23.674Z,99455.16
2022-11-17T23:54:51.317Z,99461.53
2022-11-17T23:57:18.970Z,99453.44
2022-11-17T23:59:47.964Z,99470.28
